Time;durP1;ratioP1;P1;durP2;ratioP2;P2;SDS_P1;SDS_P2;PMS_P1;PMS_P2;Temp;Humidity;BMP_temperature;BMP_pressure;BME280_temperature;BME280_humidity;BME280_pressure;Samples;Min_cycle;Max_cycle;Signal;HPM_P1;HPM_P2
2021/12/09 00:02:06;;;;;;;60.03;54.87;;;-2.00;99.90;;;;;;5080352;28;20247;-75
2021/12/09 00:04:56;;;;;;;62.77;57.67;;;-2.00;99.90;;;;;;5069623;28;20590;-74
2021/12/09 00:07:50;;;;;;;60.03;54.73;;;-2.10;99.90;;;;;;5083712;28;20229;-73
2021/12/09 00:10:40;;;;;;;62.97;57.77;;;-2.10;99.90;;;;;;5074944;28;20231;-74
2021/12/09 00:13:29;;;;;;;60.53;55.77;;;-2.30;99.90;;;;;;5073981;28;20224;-74
2021/12/09 00:16:18;;;;;;;60.57;55.70;;;-2.20;99.90;;;;;;5084394;28;20216;-77
2021/12/09 00:19:08;;;;;;;60.27;55.20;;;-2.30;99.90;;;;;;5061179;28;20762;-73
2021/12/09 00:21:58;;;;;;;56.37;51.80;;;-2.30;99.90;;;;;;5086939;28;20223;-76
2021/12/09 00:24:47;;;;;;;60.50;55.50;;;-2.30;99.90;;;;;;5068706;28;20711;-75
2021/12/09 00:27:35;;;;;;;59.03;54.33;;;-2.40;99.90;;;;;;5069526;28;20223;-76
2021/12/09 00:30:24;;;;;;;59.37;54.03;;;-2.50;99.90;;;;;;5081911;28;20219;-77
2021/12/09 00:33:15;;;;;;;61.03;56.10;;;-2.50;99.90;;;;;;5061797;28;20710;-74
2021/12/09 00:36:06;;;;;;;58.00;53.40;;;-2.40;99.90;;;;;;5093455;28;20241;-73
2021/12/09 00:38:55;;;;;;;59.00;54.10;;;-2.40;99.90;;;;;;5083091;28;20223;-74
2021/12/09 00:41:44;;;;;;;61.97;56.83;;;-2.60;99.90;;;;;;5069524;28;20252;-73
2021/12/09 00:44:33;;;;;;;61.20;56.00;;;-2.50;99.90;;;;;;5081591;28;20948;-74
2021/12/09 00:47:22;;;;;;;60.53;55.50;;;-2.40;99.90;;;;;;5085647;28;20218;-74
2021/12/09 00:50:11;;;;;;;59.27;54.37;;;-2.40;99.90;;;;;;5081119;28;20223;-75
2021/12/09 00:53:01;;;;;;;61.10;55.90;;;-2.30;99.90;;;;;;5077683;28;20242;-75
2021/12/09 00:55:50;;;;;;;60.20;55.17;;;-2.40;99.90;;;;;;5069683;28;20233;-73
2021/12/09 00:58:40;;;;;;;63.83;58.43;;;-2.50;99.90;;;;;;5066746;28;20615;-74
2021/12/09 01:01:29;;;;;;;62.13;56.63;;;-2.50;99.90;;;;;;5079559;28;20264;-75
2021/12/09 01:04:18;;;;;;;59.87;54.37;;;-2.50;99.90;;;;;;5080331;28;20223;-74
2021/12/09 01:07:08;;;;;;;60.37;55.17;;;-2.50;99.90;;;;;;5082139;28;20222;-73
2021/12/09 01:09:58;;;;;;;59.73;54.23;;;-2.40;99.90;;;;;;5069172;28;20215;-75
2021/12/09 01:12:47;;;;;;;61.80;56.43;;;-2.40;99.90;;;;;;5083572;28;20275;-73
2021/12/09 01:15:36;;;;;;;63.57;58.23;;;-2.30;99.90;;;;;;5081381;28;20227;-76
2021/12/09 01:18:25;;;;;;;63.37;58.07;;;-2.30;99.90;;;;;;5081471;28;20222;-76
2021/12/09 01:21:14;;;;;;;62.40;56.90;;;-2.40;99.90;;;;;;5081817;28;20219;-76
2021/12/09 01:24:05;;;;;;;61.03;55.60;;;-2.30;99.90;;;;;;5080449;28;20231;-74
2021/12/09 01:26:56;;;;;;;63.53;57.87;;;-2.30;99.90;;;;;;5072146;28;20230;-74
2021/12/09 01:29:52;;;;;;;61.70;56.30;;;-2.20;99.90;;;;;;5084348;28;22555;-72
2021/12/09 01:32:48;;;;;;;63.70;58.03;;;-2.30;99.90;;;;;;5081380;28;20231;-72
2021/12/09 01:35:37;;;;;;;63.80;58.20;;;-2.40;99.90;;;;;;5070140;28;20223;-75
2021/12/09 01:38:30;;;;;;;65.10;59.13;;;-2.30;99.90;;;;;;5081056;28;20215;-73
2021/12/09 01:41:18;;;;;;;65.03;59.20;;;-2.30;99.90;;;;;;5065986;28;20269;-74
2021/12/09 01:44:13;;;;;;;65.87;59.77;;;-2.30;99.90;;;;;;5078580;28;20220;-74
2021/12/09 01:47:01;;;;;;;64.50;59.13;;;-2.20;99.90;;;;;;5083274;28;20226;-72
2021/12/09 01:49:50;;;;;;;64.90;59.10;;;-2.20;99.90;;;;;;5080872;28;20219;-72
2021/12/09 01:52:41;;;;;;;64.90;59.07;;;-2.20;99.90;;;;;;5078281;28;20317;-76
2021/12/09 01:55:31;;;;;;;64.40;58.67;;;-2.20;99.90;;;;;;5079903;28;20564;-75
2021/12/09 01:58:19;;;;;;;65.43;59.50;;;-2.10;99.90;;;;;;5081685;28;20738;-75
2021/12/09 02:01:09;;;;;;;65.00;59.00;;;-2.20;99.90;;;;;;5070309;28;20226;-73
2021/12/09 02:04:00;;;;;;;67.53;61.30;;;-2.30;99.90;;;;;;5060745;28;20293;-74
2021/12/09 02:06:49;;;;;;;63.60;58.13;;;-2.20;99.90;;;;;;5074227;28;20223;-74
2021/12/09 02:09:38;;;;;;;62.47;57.07;;;-2.20;99.90;;;;;;5084438;28;20235;-74
2021/12/09 02:12:26;;;;;;;65.37;59.30;;;-2.30;99.90;;;;;;5070371;28;20219;-73
2021/12/09 02:15:15;;;;;;;64.77;59.03;;;-2.20;99.90;;;;;;5086868;28;20234;-74
2021/12/09 02:18:07;;;;;;;64.47;58.37;;;-2.50;99.90;;;;;;5070857;28;20247;-72
2021/12/09 02:21:10;;;;;;;64.13;58.47;;;-2.40;99.90;;;;;;5068274;28;20261;-74
2021/12/09 02:24:00;;;;;;;65.47;59.47;;;-2.40;99.90;;;;;;5072902;28;21464;-75
2021/12/09 02:26:51;;;;;;;65.97;60.00;;;-2.30;99.90;;;;;;5063098;28;20223;-73
2021/12/09 02:29:41;;;;;;;66.43;60.30;;;-2.40;99.90;;;;;;5078740;28;20764;-74
2021/12/09 02:32:30;;;;;;;64.23;58.57;;;-2.40;99.90;;;;;;5064905;28;20265;-74
2021/12/09 02:35:19;;;;;;;64.37;58.50;;;-2.30;99.90;;;;;;5079244;28;20519;-74
2021/12/09 02:38:09;;;;;;;63.83;57.93;;;-2.40;99.90;;;;;;5081609;28;20222;-74
2021/12/09 02:41:02;;;;;;;58.50;53.77;;;-2.40;99.90;;;;;;5077583;28;20226;-74
2021/12/09 02:43:56;;;;;;;63.63;57.53;;;-2.50;99.90;;;;;;5079611;28;20224;-74
2021/12/09 02:46:45;;;;;;;63.40;57.97;;;-2.50;99.90;;;;;;5082656;28;20600;-75
2021/12/09 02:49:35;;;;;;;63.70;58.20;;;-2.50;99.90;;;;;;5064309;28;20259;-74
2021/12/09 02:52:23;;;;;;;62.53;57.33;;;-2.60;99.90;;;;;;5082158;28;20584;-74
2021/12/09 02:55:13;;;;;;;65.13;58.97;;;-2.70;99.90;;;;;;5076522;28;20242;-76
2021/12/09 02:58:03;;;;;;;64.10;58.37;;;-2.70;99.90;;;;;;5062755;28;20734;-77
2021/12/09 03:00:58;;;;;;;63.33;57.87;;;-2.70;99.90;;;;;;5061427;28;20219;-77
2021/12/09 03:03:51;;;;;;;61.33;55.53;;;-2.50;99.90;;;;;;5063262;28;20216;-76
2021/12/09 03:06:42;;;;;;;59.97;55.10;;;-2.50;99.90;;;;;;5042136;28;20228;-76
2021/12/09 03:09:31;;;;;;;65.23;59.33;;;-2.80;99.90;;;;;;5056797;28;20554;-75
2021/12/09 03:12:24;;;;;;;62.87;57.40;;;-2.80;99.90;;;;;;5056432;28;20312;-77
2021/12/09 03:15:12;;;;;;;59.53;54.43;;;-2.70;99.90;;;;;;5048820;28;20212;-75
2021/12/09 03:18:01;;;;;;;63.47;57.97;;;-2.90;99.90;;;;;;5048016;28;20234;-76
2021/12/09 03:20:50;;;;;;;63.33;57.87;;;-2.50;99.90;;;;;;5060620;28;20219;-76
2021/12/09 03:23:38;;;;;;;64.53;58.90;;;-2.60;99.90;;;;;;5064270;28;20247;-75
2021/12/09 03:26:31;;;;;;;62.40;57.13;;;-2.60;99.90;;;;;;5062193;28;20216;-77
2021/12/09 03:29:23;;;;;;;63.37;57.80;;;-2.40;99.90;;;;;;5061632;28;20510;-76
2021/12/09 03:32:14;;;;;;;62.97;57.53;;;-2.30;99.90;;;;;;5040566;28;20224;-74
2021/12/09 03:35:03;;;;;;;58.27;53.70;;;-2.50;99.90;;;;;;5042303;28;20218;-74
2021/12/09 03:37:52;;;;;;;60.63;55.03;;;-2.60;99.90;;;;;;5039006;28;20228;-74
2021/12/09 03:40:41;;;;;;;62.73;57.30;;;-2.60;99.90;;;;;;5062399;28;20229;-73
2021/12/09 03:43:31;;;;;;;60.37;54.93;;;-2.60;99.90;;;;;;5045333;28;20542;-74
2021/12/09 03:46:22;;;;;;;60.57;55.33;;;-2.70;99.90;;;;;;5057084;28;20247;-74
2021/12/09 03:49:12;;;;;;;61.97;56.63;;;-2.70;99.90;;;;;;5046762;28;20234;-75
2021/12/09 03:52:01;;;;;;;61.20;56.00;;;-2.70;99.90;;;;;;5048486;28;20212;-76
2021/12/09 03:54:50;;;;;;;60.67;55.27;;;-2.80;99.90;;;;;;5091242;28;20588;-74
2021/12/09 03:57:38;;;;;;;61.23;56.10;;;-2.70;99.90;;;;;;5075939;28;20246;-74
2021/12/09 04:00:30;;;;;;;60.27;55.03;;;-2.80;99.90;;;;;;5080705;28;20252;-74
2021/12/09 04:03:20;;;;;;;59.83;54.67;;;-2.80;99.90;;;;;;5083206;28;20225;-74
2021/12/09 04:06:09;;;;;;;61.03;56.20;;;-2.80;99.90;;;;;;5083108;28;20706;-74
2021/12/09 04:08:57;;;;;;;61.70;56.43;;;-2.70;99.90;;;;;;5067915;28;20586;-74
2021/12/09 04:11:47;;;;;;;60.50;55.37;;;-2.60;99.90;;;;;;5085424;28;20291;-74
2021/12/09 04:14:36;;;;;;;61.27;56.13;;;-2.50;99.90;;;;;;5082381;28;20733;-73
2021/12/09 04:17:25;;;;;;;61.40;56.20;;;-2.50;99.90;;;;;;5090530;28;20219;-73
2021/12/09 04:20:15;;;;;;;59.63;54.70;;;-2.70;99.90;;;;;;5088575;28;20672;-74
2021/12/09 04:23:05;;;;;;;59.23;54.27;;;-2.70;99.90;;;;;;5086235;28;20231;-72
2021/12/09 04:25:54;;;;;;;60.97;56.00;;;-2.60;99.90;;;;;;5087861;28;20226;-72
2021/12/09 04:28:45;;;;;;;63.30;57.70;;;-2.50;99.90;;;;;;5078357;28;21052;-76
2021/12/09 04:31:34;;;;;;;60.10;55.00;;;-2.50;99.90;;;;;;5078033;28;20223;-73
2021/12/09 04:34:23;;;;;;;61.30;56.43;;;-2.50;99.90;;;;;;5064182;28;20553;-73
2021/12/09 04:37:16;;;;;;;61.27;56.30;;;-2.40;99.90;;;;;;5067435;28;20245;-74
2021/12/09 04:40:05;;;;;;;61.30;56.07;;;-2.50;99.90;;;;;;5082854;28;20339;-73
2021/12/09 04:42:54;;;;;;;59.03;54.27;;;-2.40;99.90;;;;;;5080957;28;20223;-74
2021/12/09 04:45:50;;;;;;;59.10;54.40;;;-2.30;99.90;;;;;;5069072;28;20774;-72
2021/12/09 04:48:39;;;;;;;60.63;55.50;;;-2.50;99.90;;;;;;5075664;28;22692;-73
2021/12/09 04:51:29;;;;;;;62.00;57.13;;;-2.50;99.90;;;;;;5061150;28;20275;-73
2021/12/09 04:54:19;;;;;;;62.07;57.23;;;-2.30;99.90;;;;;;5066880;28;20581;-73
2021/12/09 04:57:08;;;;;;;62.10;56.90;;;-2.40;99.90;;;;;;5065834;28;20261;-73
2021/12/09 04:59:57;;;;;;;59.40;54.70;;;-2.40;99.90;;;;;;5084919;28;20219;-74
2021/12/09 05:03:01;;;;;;;57.77;53.27;;;-2.30;99.90;;;;;;5070886;28;20364;-75
2021/12/09 05:05:52;;;;;;;58.03;53.37;;;-2.30;99.90;;;;;;5096386;28;20317;-73
2021/12/09 05:08:45;;;;;;;61.40;56.30;;;-2.50;99.90;;;;;;5071821;28;21157;-72
2021/12/09 05:11:48;;;;;;;60.57;55.67;;;-2.40;99.90;;;;;;5081766;28;20219;-71
2021/12/09 05:14:37;;;;;;;60.67;55.73;;;-2.40;99.90;;;;;;5077347;28;20311;-70
2021/12/09 05:17:26;;;;;;;61.90;57.07;;;-2.40;99.90;;;;;;5083110;28;20598;-74
2021/12/09 05:20:14;;;;;;;60.17;55.33;;;-2.40;99.90;;;;;;5082243;28;20230;-73
2021/12/09 05:23:03;;;;;;;60.43;55.73;;;-2.60;99.90;;;;;;5076916;28;20226;-73
2021/12/09 05:25:53;;;;;;;60.13;55.17;;;-2.50;99.90;;;;;;5081125;28;20231;-74
2021/12/09 05:28:44;;;;;;;58.13;53.50;;;-2.40;99.90;;;;;;5085306;28;20221;-74
2021/12/09 05:34:44;;;;;;;61.63;56.67;;;-2.30;99.90;;;;;;5082014;28;20580;-73
2021/12/09 05:37:33;;;;;;;59.47;54.63;;;-2.30;99.90;;;;;;5058828;28;20225;-75
2021/12/09 05:40:21;;;;;;;59.70;54.70;;;-2.40;99.90;;;;;;5087011;28;20652;-75
2021/12/09 05:43:10;;;;;;;61.57;56.47;;;-2.30;99.90;;;;;;5076563;28;20215;-76
2021/12/09 05:46:00;;;;;;;60.23;55.00;;;-2.30;99.90;;;;;;5082008;28;20224;-75
2021/12/09 05:48:51;;;;;;;60.90;55.73;;;-2.40;99.90;;;;;;5083259;28;20230;-74
2021/12/09 05:51:40;;;;;;;61.17;55.97;;;-2.30;99.90;;;;;;5081578;28;20275;-72
2021/12/09 05:54:29;;;;;;;61.43;56.33;;;-2.30;99.90;;;;;;5084073;28;20220;-74
2021/12/09 05:57:18;;;;;;;60.63;55.53;;;-2.20;99.90;;;;;;5081195;28;20246;-73
2021/12/09 06:00:09;;;;;;;61.90;56.37;;;-2.20;99.90;;;;;;5083121;28;20214;-74
2021/12/09 06:03:02;;;;;;;58.93;53.93;;;-2.30;99.90;;;;;;5078971;28;20237;-75
2021/12/09 06:05:52;;;;;;;59.63;54.73;;;-2.40;99.90;;;;;;5073473;28;20231;-70
2021/12/09 06:08:41;;;;;;;62.07;56.87;;;-2.50;99.90;;;;;;5080251;28;20587;-71
2021/12/09 06:11:30;;;;;;;57.57;53.03;;;-2.30;99.90;;;;;;5080240;28;20222;-72
2021/12/09 06:14:19;;;;;;;61.93;56.83;;;-2.30;99.90;;;;;;5087234;28;20290;-76
2021/12/09 06:17:08;;;;;;;63.10;57.77;;;-2.30;99.90;;;;;;5069949;28;20249;-76
2021/12/09 06:19:58;;;;;;;58.07;53.53;;;-2.30;99.90;;;;;;5086111;28;20667;-75
2021/12/09 06:22:47;;;;;;;58.63;53.83;;;-2.30;99.90;;;;;;5081376;28;20229;-76
2021/12/09 06:25:36;;;;;;;63.83;58.63;;;-2.40;99.90;;;;;;5097409;28;20689;-76
2021/12/09 06:28:24;;;;;;;58.17;53.03;;;-2.40;99.90;;;;;;5094273;27;20695;-75
2021/12/09 06:31:13;;;;;;;61.60;56.30;;;-2.50;99.90;;;;;;5060812;28;20219;-76
2021/12/09 06:34:05;;;;;;;62.23;56.70;;;-2.50;99.90;;;;;;5081226;28;20269;-75
2021/12/09 06:36:55;;;;;;;63.70;58.03;;;-2.40;99.90;;;;;;5079835;28;20580;-75
2021/12/09 06:39:44;;;;;;;60.33;54.93;;;-2.30;99.90;;;;;;5068220;28;20230;-73
2021/12/09 06:42:33;;;;;;;56.40;52.00;;;-2.10;99.90;;;;;;5078207;28;21014;-72
2021/12/09 06:45:24;;;;;;;63.23;57.67;;;-2.20;99.90;;;;;;5061586;28;20280;-75
2021/12/09 06:48:13;;;;;;;58.17;53.30;;;-2.10;99.90;;;;;;5069778;28;20231;-74
2021/12/09 06:51:02;;;;;;;62.90;57.23;;;-2.20;99.90;;;;;;5046039;28;20220;-73
2021/12/09 06:53:52;;;;;;;62.53;57.00;;;-2.30;99.90;;;;;;5068798;28;20250;-74
2021/12/09 06:56:41;;;;;;;62.33;56.87;;;-2.30;99.90;;;;;;5066991;28;20714;-74
2021/12/09 06:59:30;;;;;;;61.13;55.63;;;-2.20;99.90;;;;;;5078798;28;20717;-74
2021/12/09 07:02:18;;;;;;;62.73;56.73;;;-2.30;99.90;;;;;;5067568;28;20207;-73
2021/12/09 07:05:09;;;;;;;62.57;57.27;;;-2.10;99.90;;;;;;5078042;28;20548;-72
2021/12/09 07:07:58;;;;;;;61.67;56.07;;;-2.00;99.90;;;;;;5080600;28;20216;-74
2021/12/09 07:10:48;;;;;;;60.27;55.17;;;-2.00;99.90;;;;;;5078410;28;20237;-75
2021/12/09 07:13:38;;;;;;;62.57;57.07;;;-2.20;99.90;;;;;;5080254;28;20806;-72
2021/12/09 07:16:26;;;;;;;59.60;54.47;;;-2.20;99.90;;;;;;5087345;28;20288;-71
2021/12/09 07:19:15;;;;;;;61.80;56.27;;;-2.20;99.90;;;;;;5063881;28;20686;-72
2021/12/09 07:22:04;;;;;;;60.77;55.30;;;-2.00;99.90;;;;;;5099931;28;20226;-71
2021/12/09 07:24:53;;;;;;;60.57;55.37;;;-2.10;99.90;;;;;;5070023;28;20218;-71
2021/12/09 07:27:43;;;;;;;64.23;58.10;;;-2.10;99.90;;;;;;5070010;28;20226;-71
2021/12/09 07:30:32;;;;;;;55.93;51.63;;;-2.20;99.90;;;;;;5063905;28;20587;-71
2021/12/09 07:33:20;;;;;;;61.40;55.87;;;-2.30;99.90;;;;;;5080475;28;20220;-71
2021/12/09 07:36:09;;;;;;;64.03;58.17;;;-2.20;99.90;;;;;;5066914;28;20283;-72
2021/12/09 07:38:58;;;;;;;62.43;57.23;;;-2.10;99.90;;;;;;5084188;28;20223;-71
2021/12/09 07:41:47;;;;;;;64.43;58.63;;;-1.90;99.90;;;;;;5095777;27;20923;-72
2021/12/09 07:44:39;;;;;;;62.23;56.80;;;-2.00;99.90;;;;;;5073002;28;20811;-70
2021/12/09 07:47:28;;;;;;;61.13;55.67;;;-2.00;99.90;;;;;;5071168;28;20233;-70
2021/12/09 07:50:19;;;;;;;63.93;58.23;;;-1.80;99.90;;;;;;5094178;28;20223;-71
2021/12/09 07:53:11;;;;;;;62.47;56.83;;;-1.60;99.90;;;;;;5084622;28;20219;-71
2021/12/09 07:56:00;;;;;;;62.40;57.00;;;-1.70;99.90;;;;;;5049869;28;20258;-71
2021/12/09 07:58:48;;;;;;;62.77;57.37;;;-1.60;99.90;;;;;;5061798;28;20340;-72
2021/12/09 08:01:39;;;;;;;64.83;59.07;;;-1.50;99.90;;;;;;5064075;28;20528;-69
2021/12/09 08:04:28;;;;;;;62.77;57.53;;;-1.50;99.90;;;;;;5061588;28;21240;-75
2021/12/09 08:07:16;;;;;;;63.73;58.33;;;-1.50;99.90;;;;;;5102944;27;20290;-75
2021/12/09 08:10:10;;;;;;;62.07;56.70;;;-1.50;99.90;;;;;;5076532;28;20255;-76
2021/12/09 08:13:00;;;;;;;65.97;60.03;;;-1.60;99.90;;;;;;5056390;28;20688;-75
2021/12/09 08:15:50;;;;;;;62.40;56.90;;;-1.70;99.90;;;;;;5091826;28;20293;-75
2021/12/09 08:18:55;;;;;;;64.83;58.70;;;-1.70;99.90;;;;;;5086488;28;20227;-72
2021/12/09 08:21:44;;;;;;;63.83;58.33;;;-1.60;99.90;;;;;;5094965;27;20310;-73
2021/12/09 08:24:33;;;;;;;62.60;57.00;;;-1.60;99.90;;;;;;5082160;28;20215;-71
2021/12/09 08:27:21;;;;;;;63.50;58.00;;;-1.40;99.90;;;;;;5084296;28;20215;-71
2021/12/09 08:30:12;;;;;;;62.83;57.60;;;-1.50;99.90;;;;;;5084071;28;20239;-72
2021/12/09 08:33:01;;;;;;;64.60;58.87;;;-1.40;99.90;;;;;;5085591;28;20592;-72
2021/12/09 08:35:52;;;;;;;63.33;57.67;;;-1.30;99.90;;;;;;5048589;28;20235;-72
2021/12/09 08:38:41;;;;;;;63.90;58.43;;;-1.30;99.90;;;;;;5057632;28;20219;-76
2021/12/09 08:41:30;;;;;;;63.63;58.33;;;-1.30;99.90;;;;;;5083727;28;20219;-75
2021/12/09 08:44:18;;;;;;;49.30;44.83;;;-1.40;99.90;;;;;;5067370;28;20221;-72
2021/12/09 08:47:08;;;;;;;52.67;47.93;;;-1.60;99.90;;;;;;5064604;28;20223;-71
2021/12/09 08:49:57;;;;;;;52.90;48.10;;;-1.60;99.90;;;;;;5078277;28;20220;-71
2021/12/09 08:52:48;;;;;;;55.87;50.80;;;-1.60;99.90;;;;;;5051164;28;20224;-72
2021/12/09 08:55:37;;;;;;;56.10;50.80;;;-1.50;99.90;;;;;;5078329;28;20223;-71
2021/12/09 08:58:28;;;;;;;54.07;49.27;;;-1.50;99.90;;;;;;5073498;28;20224;-69
2021/12/09 09:01:18;;;;;;;55.50;50.07;;;-1.40;99.90;;;;;;5082380;28;20242;-73
2021/12/09 09:04:08;;;;;;;57.80;52.50;;;-1.20;99.90;;;;;;5084958;28;20230;-71
2021/12/09 09:06:59;;;;;;;54.93;49.83;;;-1.20;99.90;;;;;;5067444;28;20349;-70
2021/12/09 09:09:49;;;;;;;55.83;50.77;;;-1.20;99.90;;;;;;5083302;28;20698;-70
2021/12/09 09:12:38;;;;;;;57.03;51.80;;;-1.20;99.90;;;;;;5080840;28;21099;-71
2021/12/09 09:15:31;;;;;;;58.37;52.87;;;-1.20;99.90;;;;;;5079590;28;20207;-72
2021/12/09 09:18:22;;;;;;;59.17;53.53;;;-1.10;99.90;;;;;;5083659;28;20223;-70
2021/12/09 09:21:11;;;;;;;57.67;52.00;;;-1.20;99.90;;;;;;5081350;28;20215;-72
2021/12/09 09:23:59;;;;;;;58.53;53.33;;;-1.10;99.90;;;;;;5065531;28;20241;-71
2021/12/09 09:26:49;;;;;;;58.80;53.07;;;-1.10;99.90;;;;;;5080853;28;20225;-70
2021/12/09 09:29:40;;;;;;;57.23;51.90;;;-1.10;99.90;;;;;;5062386;28;20224;-68
2021/12/09 09:32:29;;;;;;;57.90;52.53;;;-1.10;99.90;;;;;;5062353;28;20238;-71
2021/12/09 09:35:19;;;;;;;58.07;52.27;;;-1.30;99.90;;;;;;5047412;28;20284;-70
2021/12/09 09:38:09;;;;;;;59.40;53.10;;;-1.40;99.90;;;;;;5073128;28;20291;-70
2021/12/09 09:41:07;;;;;;;57.57;52.03;;;-1.10;99.90;;;;;;5085763;28;20725;-70
2021/12/09 09:43:59;;;;;;;57.97;52.47;;;-1.20;99.90;;;;;;5085338;28;20231;-71
2021/12/09 09:46:48;;;;;;;57.93;52.30;;;-1.10;99.90;;;;;;5083926;28;20745;-70
2021/12/09 09:49:37;;;;;;;54.90;49.77;;;-0.90;99.90;;;;;;5081837;28;20224;-69
2021/12/09 09:52:26;;;;;;;59.37;53.27;;;-1.20;99.90;;;;;;5069187;28;20236;-72
2021/12/09 09:55:20;;;;;;;60.67;54.57;;;-1.10;99.90;;;;;;5062662;28;20235;-71
2021/12/09 09:58:09;;;;;;;58.87;53.07;;;-0.90;99.90;;;;;;5073966;28;20270;-71
2021/12/09 10:00:59;;;;;;;59.93;54.07;;;-0.90;99.90;;;;;;5062907;28;20760;-71
2021/12/09 10:03:52;;;;;;;61.17;55.33;;;-0.90;99.90;;;;;;5082617;28;20289;-71
2021/12/09 10:06:44;;;;;;;60.13;54.60;;;-0.90;99.90;;;;;;5095683;27;20239;-71
2021/12/09 10:09:34;;;;;;;59.70;54.10;;;-0.90;99.90;;;;;;5080287;28;20713;-72
2021/12/09 10:12:23;;;;;;;60.57;54.80;;;-0.70;99.90;;;;;;5082287;28;20298;-70
2021/12/09 10:15:12;;;;;;;58.13;52.67;;;-0.80;99.90;;;;;;5053798;28;20214;-70
2021/12/09 10:18:03;;;;;;;57.50;52.10;;;-0.90;99.90;;;;;;5075179;28;20221;-70
2021/12/09 10:20:55;;;;;;;60.60;54.70;;;-1.10;99.90;;;;;;5080324;28;20225;-72
2021/12/09 10:23:46;;;;;;;64.50;58.10;;;-0.80;99.90;;;;;;5079903;28;20247;-70
2021/12/09 10:26:37;;;;;;;59.70;53.63;;;-0.60;99.90;;;;;;5082197;28;20261;-70
2021/12/09 10:29:30;;;;;;;60.53;54.87;;;-0.60;99.90;;;;;;5070572;28;20557;-70
2021/12/09 10:32:26;;;;;;;61.70;55.93;;;-0.80;99.90;;;;;;5096260;28;20248;-70
2021/12/09 10:35:18;;;;;;;56.90;51.27;;;-0.90;99.90;;;;;;5081546;28;20227;-71
2021/12/09 10:38:07;;;;;;;60.33;54.40;;;-0.90;99.90;;;;;;5079179;28;20969;-70
2021/12/09 10:40:56;;;;;;;60.63;55.03;;;-1.00;99.90;;;;;;5065230;28;20232;-71
2021/12/09 10:43:49;;;;;;;60.53;54.90;;;-0.80;99.90;;;;;;5082982;28;20684;-70
2021/12/09 10:46:53;;;;;;;60.53;54.67;;;-0.60;99.90;;;;;;5077852;28;20224;-71
2021/12/09 10:49:48;;;;;;;60.17;54.23;;;-0.60;99.90;;;;;;5081349;28;20216;-71
2021/12/09 10:52:43;;;;;;;59.60;53.90;;;-0.60;99.90;;;;;;5075108;28;20307;-71
2021/12/09 10:55:34;;;;;;;58.87;53.23;;;-0.60;99.90;;;;;;5078969;28;20307;-70
2021/12/09 10:58:25;;;;;;;59.57;53.93;;;-0.60;99.90;;;;;;5081570;28;20268;-70
2021/12/09 11:01:17;;;;;;;59.57;53.77;;;-0.70;99.90;;;;;;5063815;28;20217;-69
2021/12/09 11:04:06;;;;;;;59.23;53.63;;;-0.60;99.90;;;;;;5074327;28;20219;-71
2021/12/09 11:06:54;;;;;;;60.27;54.60;;;-0.60;99.90;;;;;;5067988;28;20223;-67
2021/12/09 11:09:44;;;;;;;61.60;55.23;;;-0.50;99.90;;;;;;5086059;28;20228;-69
2021/12/09 11:12:38;;;;;;;59.33;53.50;;;-0.60;99.90;;;;;;5062984;28;20300;-70
2021/12/09 11:15:46;;;;;;;58.90;53.50;;;-0.50;99.90;;;;;;5064861;28;20241;-72
2021/12/09 11:18:40;;;;;;;59.00;53.50;;;-0.60;99.90;;;;;;5061710;28;20225;-70
2021/12/09 11:21:34;;;;;;;58.07;52.67;;;-0.60;99.90;;;;;;5081912;28;20241;-69
2021/12/09 11:24:27;;;;;;;60.33;54.90;;;-0.50;99.90;;;;;;5094102;28;20212;-71
2021/12/09 11:27:22;;;;;;;59.17;53.87;;;-0.40;99.90;;;;;;5094286;28;20349;-70
2021/12/09 11:30:15;;;;;;;61.23;55.93;;;-0.40;99.90;;;;;;5050916;28;20232;-71
2021/12/09 11:33:04;;;;;;;59.93;54.63;;;-0.30;99.90;;;;;;5063623;28;20241;-72
2021/12/09 11:35:52;;;;;;;55.57;50.07;;;-0.30;99.90;;;;;;5077072;28;20856;-72
2021/12/09 11:39:07;;;;;;;57.87;52.30;;;-0.30;99.90;;;;;;5081232;28;20741;-70
2021/12/09 11:42:05;;;;;;;59.83;54.10;;;-0.40;99.90;;;;;;5080361;28;20755;-71
2021/12/09 11:45:18;;;;;;;57.27;51.53;;;-0.30;99.90;;;;;;5082545;28;20298;-69
2021/12/09 11:48:09;;;;;;;56.73;51.77;;;-0.50;99.90;;;;;;5082730;28;20287;-71
2021/12/09 11:50:58;;;;;;;61.50;55.47;;;-0.50;99.90;;;;;;5066721;28;20272;-68
2021/12/09 11:53:54;;;;;;;57.63;52.37;;;-0.60;99.90;;;;;;5064590;28;20804;-69
2021/12/09 11:57:00;;;;;;;58.00;52.47;;;-0.30;99.90;;;;;;5059716;28;20242;-69
2021/12/09 12:07:16;;;;;;;59.97;54.53;;;-0.20;99.90;;;;;;5003000;28;20227;-72
2021/12/09 12:13:14;;;;;;;59.27;53.70;;;-0.30;99.90;;;;;;5082684;28;20590;-70
2021/12/09 12:16:39;;;;;;;59.20;53.23;;;-0.20;99.90;;;;;;5072722;28;20277;-70
2021/12/09 12:20:11;;;;;;;56.73;51.57;;;-0.20;99.90;;;;;;5085959;28;20213;-70
2021/12/09 12:23:16;;;;;;;59.10;53.43;;;-0.40;99.90;;;;;;5073527;28;20235;-69
2021/12/09 12:26:34;;;;;;;57.17;51.37;;;-0.20;99.90;;;;;;5057857;28;20240;-70
2021/12/09 12:29:48;;;;;;;58.00;52.33;;;-0.20;99.90;;;;;;5063846;28;20237;-69
2021/12/09 12:33:06;;;;;;;60.70;54.90;;;-0.30;99.90;;;;;;5080359;28;20245;-68
2021/12/09 12:36:20;;;;;;;58.70;53.03;;;-0.40;99.90;;;;;;5083463;28;20266;-70
2021/12/09 12:39:17;;;;;;;60.47;54.30;;;-0.50;99.90;;;;;;5085741;28;20225;-68
2021/12/09 12:42:13;;;;;;;60.00;54.20;;;-0.60;99.90;;;;;;5083190;28;20225;-68
2021/12/09 12:45:43;;;;;;;59.60;53.50;;;-0.40;99.90;;;;;;5083138;28;20281;-71
2021/12/09 12:48:59;;;;;;;59.40;53.60;;;-0.40;99.90;;;;;;5045329;28;20212;-70
2021/12/09 12:51:58;;;;;;;60.23;54.03;;;-0.50;99.90;;;;;;5067265;28;20231;-71
2021/12/09 12:54:52;;;;;;;61.23;54.63;;;-0.40;99.90;;;;;;5083698;28;20234;-71
2021/12/09 12:57:45;;;;;;;60.00;53.97;;;-0.20;99.90;;;;;;5082307;28;20227;-70
2021/12/09 13:00:42;;;;;;;59.10;53.03;;;-0.30;99.90;;;;;;5078722;28;20209;-71
2021/12/09 13:03:35;;;;;;;58.97;52.87;;;-0.40;99.90;;;;;;5068991;28;20217;-70
2021/12/09 13:06:47;;;;;;;58.50;52.80;;;-0.30;99.90;;;;;;5083923;28;20222;-69
2021/12/09 13:09:40;;;;;;;59.70;53.63;;;-0.20;99.90;;;;;;5070033;28;20222;-68
2021/12/09 13:12:38;;;;;;;57.97;52.43;;;-0.20;99.90;;;;;;5082612;28;20275;-70
2021/12/09 13:15:33;;;;;;;59.03;53.03;;;-0.30;99.90;;;;;;5081387;28;20233;-70
2021/12/09 13:18:52;;;;;;;59.03;53.30;;;-0.20;99.90;;;;;;5082091;28;20270;-71
2021/12/09 13:21:52;;;;;;;59.70;54.20;;;-0.20;99.90;;;;;;5094303;28;20218;-70
2021/12/09 13:24:48;;;;;;;57.73;52.10;;;-0.30;99.90;;;;;;5080690;28;20210;-70
2021/12/09 13:27:52;;;;;;;54.60;49.43;;;-0.30;99.90;;;;;;5082758;28;20245;-69
2021/12/09 13:31:06;;;;;;;55.23;49.67;;;-0.40;99.90;;;;;;5066372;28;20221;-70
2021/12/09 13:34:06;;;;;;;59.63;53.80;;;-0.30;99.90;;;;;;5075228;28;20358;-71
2021/12/09 13:37:31;;;;;;;59.63;54.00;;;-0.20;99.90;;;;;;5080630;28;20229;-69
2021/12/09 13:40:27;;;;;;;56.50;51.63;;;-0.10;99.90;;;;;;5094821;27;20265;-69
2021/12/09 13:46:30;;;;;;;51.70;47.53;;;-0.30;99.90;;;;;;5060267;28;20216;-71
2021/12/09 13:49:24;;;;;;;57.37;52.07;;;-0.30;99.90;;;;;;5078742;28;20223;-70
2021/12/09 13:55:28;;;;;;;58.57;52.93;;;-0.40;99.90;;;;;;5067350;28;20574;-68
2021/12/09 13:58:21;;;;;;;60.17;54.77;;;-0.50;99.90;;;;;;5068108;28;20697;-69
2021/12/09 14:01:10;;;;;;;58.90;53.70;;;-0.40;99.90;;;;;;5086930;28;20329;-71
2021/12/09 14:03:59;;;;;;;60.57;54.67;;;-0.40;99.90;;;;;;5073079;28;20277;-70
2021/12/09 14:06:56;;;;;;;58.63;53.03;;;-0.30;99.90;;;;;;5080105;28;20806;-70
2021/12/09 14:09:57;;;;;;;59.77;54.30;;;-0.20;99.90;;;;;;5078929;28;20225;-69
2021/12/09 14:12:56;;;;;;;58.77;53.10;;;-0.20;99.90;;;;;;5081551;28;20222;-70
2021/12/09 14:16:00;;;;;;;60.30;54.77;;;-0.20;99.90;;;;;;5080997;28;20609;-66
2021/12/09 14:21:59;;;;;;;60.87;54.57;;;-0.40;99.90;;;;;;5082210;28;20215;-69
2021/12/09 14:24:48;;;;;;;60.10;53.73;;;-0.40;99.90;;;;;;5081328;28;20249;-74
2021/12/09 14:27:37;;;;;;;65.03;58.80;;;-0.40;99.90;;;;;;5077853;28;20246;-70
2021/12/09 14:30:29;;;;;;;62.67;56.57;;;-0.50;99.90;;;;;;5089203;27;21185;-70
2021/12/09 14:33:19;;;;;;;59.27;53.47;;;-0.40;99.90;;;;;;5065140;28;20267;-70
2021/12/09 14:36:13;;;;;;;60.37;54.20;;;-0.40;99.90;;;;;;5077218;28;20285;-70
2021/12/09 14:39:04;;;;;;;62.53;56.27;;;-0.60;99.90;;;;;;5057284;28;20235;-70
2021/12/09 14:42:06;;;;;;;62.77;56.60;;;-0.60;99.90;;;;;;5057652;28;20229;-70
2021/12/09 14:44:58;;;;;;;63.83;57.20;;;-0.60;99.90;;;;;;5059398;28;20245;-71
2021/12/09 14:47:57;;;;;;;63.93;57.63;;;-0.50;99.90;;;;;;5058644;28;20229;-70
2021/12/09 14:50:47;;;;;;;65.60;58.77;;;-0.50;99.90;;;;;;5071924;28;20229;-70
2021/12/09 14:53:41;;;;;;;64.87;58.13;;;-0.50;99.90;;;;;;5056833;28;20217;-69
2021/12/09 14:56:32;;;;;;;65.37;58.47;;;-0.40;99.90;;;;;;5059587;28;20693;-69
2021/12/09 14:59:25;;;;;;;64.03;57.20;;;-0.40;99.90;;;;;;5023416;28;20385;-70